AWQ115 WAPP-VTBD
Flight info
| Callsign | AWQ115 |
|---|---|
| Flight time | 4h 46m |
| Altitude | 34000 |
| Route | BELBA W55 MWB A211 ARIRU DCT AGIGI/N0463F360 W441 DOGOG M768 AKMON/K0857F360 M768 TSH R468 SAPEN/N0463F360 R468 ELMOP P629 NUGPA SEHNA3A |
| Aircraft | A320/M-SDE3FGHIRWY/LB1 |
Departure
| Time | 2026-04-15 03:10 |
|---|---|
| Airport | Pattimura International Airport (WAPP) |
Arrival
| Time | 2026-04-15 07:57 |
|---|---|
| Airport | Don Mueang International Airport (VTBD) |
| Time | Latitude | Longitude | Altitude | Speed | Heading |
|---|---|---|---|---|---|
| 2026-04-15 02:55 | -3.70627 | 128.08893 | 36 ft | 0 kts | 359° |
| 2026-04-15 03:03 | -3.70651 | 128.08893 | 35 ft | 4 kts | 6° |
| 2026-04-15 03:03 | -3.70677 | 128.08888 | 34 ft | 4 kts | 24° |
| 2026-04-15 03:04 | -3.70695 | 128.08873 | 35 ft | 3 kts | 84° |
| 2026-04-15 03:04 | -3.70696 | 128.08869 | 35 ft | 2 kts | 90° |
| 2026-04-15 03:06 | -3.70696 | 128.08875 | 35 ft | 3 kts | 90° |
| 2026-04-15 03:06 | -3.70696 | 128.08907 | 34 ft | 7 kts | 90° |
| 2026-04-15 03:07 | -3.70695 | 128.08968 | 35 ft | 11 kts | 89° |
| 2026-04-15 03:07 | -3.70698 | 128.09058 | 35 ft | 15 kts | 108° |
| 2026-04-15 03:07 | -3.70772 | 128.09142 | 34 ft | 18 kts | 135° |
| 2026-04-15 03:07 | -3.70764 | 128.09227 | 36 ft | 15 kts | 52° |
| 2026-04-15 03:08 | -3.70678 | 128.09315 | 36 ft | 22 kts | 45° |
| 2026-04-15 03:08 | -3.70555 | 128.09444 | 36 ft | 29 kts | 48° |
| 2026-04-15 03:08 | -3.70396 | 128.09603 | 52 ft | 36 kts | 43° |
| 2026-04-15 03:08 | -3.70256 | 128.09703 | 34 ft | 11 kts | 22° |
| 2026-04-15 03:09 | -3.70238 | 128.09736 | 34 ft | 5 kts | 143° |
| 2026-04-15 03:09 | -3.70259 | 128.09734 | 34 ft | 1 kts | 213° |
| 2026-04-15 03:09 | -3.70263 | 128.09729 | 34 ft | 1 kts | 228° |
| 2026-04-15 03:09 | -3.70357 | 128.09633 | 34 ft | 53 kts | 224° |
| 2026-04-15 03:10 | -3.70800 | 128.09197 | 36 ft | 123 kts | 224° |
| 2026-04-15 03:10 | -3.71569 | 128.08486 | 70 ft | 171 kts | 220° |
| 2026-04-15 03:10 | -3.72504 | 128.07734 | 833 ft | 172 kts | 219° |
| 2026-04-15 03:10 | -3.73404 | 128.06937 | 1622 ft | 177 kts | 223° |
| 2026-04-15 03:11 | -3.74285 | 128.06002 | 1936 ft | 192 kts | 224° |
| 2026-04-15 03:11 | -3.75286 | 128.05019 | 2117 ft | 213 kts | 222° |
| 2026-04-15 03:11 | -3.76424 | 128.03965 | 2290 ft | 236 kts | 219° |
| 2026-04-15 03:11 | -3.77709 | 128.02880 | 2842 ft | 242 kts | 217° |
| 2026-04-15 03:12 | -3.79008 | 128.01788 | 3505 ft | 244 kts | 217° |
| 2026-04-15 03:12 | -3.80126 | 128.00489 | 4180 ft | 250 kts | 242° |
| 2026-04-15 03:12 | -3.80635 | 127.98814 | 4869 ft | 255 kts | 260° |
| 2026-04-15 03:12 | -3.80656 | 127.97031 | 5546 ft | 259 kts | 275° |
| 2026-04-15 03:13 | -3.80219 | 127.95298 | 6230 ft | 262 kts | 290° |
| 2026-04-15 03:13 | -3.79285 | 127.93692 | 6893 ft | 267 kts | 307° |
| 2026-04-15 03:13 | -3.77828 | 127.92483 | 7225 ft | 286 kts | 333° |
| 2026-04-15 03:13 | -3.75886 | 127.91932 | 7808 ft | 293 kts | 347° |
| 2026-04-15 03:14 | -3.73886 | 127.91518 | 8495 ft | 293 kts | 346° |
| 2026-04-15 03:14 | -3.71892 | 127.91084 | 9215 ft | 293 kts | 345° |
| 2026-04-15 03:14 | -3.69897 | 127.90642 | 9883 ft | 294 kts | 344° |
| 2026-04-15 03:14 | -3.67865 | 127.90191 | 10244 ft | 307 kts | 344° |
| 2026-04-15 03:15 | -3.66451 | 127.89876 | 10346 ft | 320 kts | 345° |
| 2026-04-15 03:15 | -3.63475 | 127.89218 | 10521 ft | 345 kts | 345° |
| 2026-04-15 03:15 | -3.61062 | 127.88689 | 10646 ft | 363 kts | 345° |
| 2026-04-15 03:15 | -3.58552 | 127.88145 | 10922 ft | 373 kts | 346° |
| 2026-04-15 03:16 | -3.55996 | 127.87596 | 11411 ft | 377 kts | 346° |
| 2026-04-15 03:16 | -3.53420 | 127.87046 | 11933 ft | 380 kts | 346° |
| 2026-04-15 03:16 | -3.50819 | 127.86490 | 12435 ft | 383 kts | 346° |
| 2026-04-15 03:16 | -3.48198 | 127.85926 | 12911 ft | 387 kts | 346° |
| 2026-04-15 03:17 | -3.45558 | 127.85355 | 13388 ft | 390 kts | 346° |
| 2026-04-15 03:17 | -3.42895 | 127.84778 | 13828 ft | 393 kts | 346° |
| 2026-04-15 03:17 | -3.40205 | 127.84195 | 14228 ft | 396 kts | 346° |
| 2026-04-15 03:17 | -3.37498 | 127.83608 | 14636 ft | 399 kts | 346° |
| 2026-04-15 03:18 | -3.34806 | 127.83025 | 15017 ft | 402 kts | 346° |
| 2026-04-15 03:18 | -3.32055 | 127.82430 | 15399 ft | 406 kts | 346° |
| 2026-04-15 03:18 | -3.29289 | 127.81832 | 15785 ft | 408 kts | 346° |
| 2026-04-15 03:18 | -3.26499 | 127.81231 | 16164 ft | 411 kts | 346° |
| 2026-04-15 03:19 | -3.23692 | 127.80636 | 16530 ft | 414 kts | 347° |
| 2026-04-15 03:19 | -3.20864 | 127.80045 | 16888 ft | 416 kts | 347° |
| 2026-04-15 03:19 | -3.18013 | 127.79455 | 17256 ft | 419 kts | 347° |
| 2026-04-15 03:19 | -3.15147 | 127.78861 | 17624 ft | 422 kts | 347° |
| 2026-04-15 03:20 | -3.12260 | 127.78261 | 17981 ft | 425 kts | 347° |
| 2026-04-15 03:20 | -3.09343 | 127.77653 | 18296 ft | 428 kts | 347° |
| 2026-04-15 03:20 | -3.06424 | 127.77041 | 18596 ft | 430 kts | 347° |
| 2026-04-15 03:20 | -3.03492 | 127.76424 | 18908 ft | 431 kts | 347° |
| 2026-04-15 03:21 | -3.01545 | 127.76013 | 19115 ft | 432 kts | 347° |
| 2026-04-15 03:21 | -2.95629 | 127.74769 | 19727 ft | 436 kts | 347° |
| 2026-04-15 03:21 | -2.92696 | 127.74096 | 20010 ft | 438 kts | 342° |
| 2026-04-15 03:22 | -2.89860 | 127.72999 | 20300 ft | 438 kts | 332° |
| 2026-04-15 03:22 | -2.87230 | 127.71462 | 20589 ft | 439 kts | 326° |
| 2026-04-15 03:22 | -2.84653 | 127.69814 | 20870 ft | 441 kts | 326° |
| 2026-04-15 03:22 | -2.82057 | 127.68163 | 21168 ft | 443 kts | 326° |
| 2026-04-15 03:23 | -2.79449 | 127.66510 | 21452 ft | 444 kts | 326° |
| 2026-04-15 03:23 | -2.76823 | 127.64850 | 21734 ft | 446 kts | 326° |
| 2026-04-15 03:23 | -2.74191 | 127.63185 | 22012 ft | 448 kts | 326° |
| 2026-04-15 03:23 | -2.71545 | 127.61510 | 22278 ft | 450 kts | 326° |
| 2026-04-15 03:24 | -2.68896 | 127.59830 | 22542 ft | 452 kts | 326° |
| 2026-04-15 03:24 | -2.66229 | 127.58137 | 22804 ft | 454 kts | 326° |
| 2026-04-15 03:24 | -2.63585 | 127.56461 | 23064 ft | 455 kts | 326° |
| 2026-04-15 03:24 | -2.60906 | 127.54764 | 23310 ft | 457 kts | 326° |
| 2026-04-15 03:25 | -2.58212 | 127.53058 | 23539 ft | 459 kts | 326° |
| 2026-04-15 03:25 | -2.55506 | 127.51343 | 23758 ft | 460 kts | 326° |
| 2026-04-15 03:25 | -2.52797 | 127.49625 | 23953 ft | 461 kts | 326° |
| 2026-04-15 03:25 | -2.50082 | 127.47903 | 24181 ft | 462 kts | 326° |
| 2026-04-15 03:26 | -2.47356 | 127.46174 | 24397 ft | 463 kts | 326° |
| 2026-04-15 03:26 | -2.44663 | 127.44466 | 24609 ft | 464 kts | 326° |
| 2026-04-15 03:26 | -2.41899 | 127.42715 | 24822 ft | 465 kts | 326° |
| 2026-04-15 03:26 | -2.39198 | 127.41005 | 25028 ft | 466 kts | 326° |
| 2026-04-15 03:27 | -2.36419 | 127.39246 | 25231 ft | 467 kts | 326° |
| 2026-04-15 03:27 | -2.33711 | 127.37528 | 25423 ft | 468 kts | 326° |
| 2026-04-15 03:27 | -2.30951 | 127.35780 | 25637 ft | 469 kts | 326° |
| 2026-04-15 03:27 | -2.28186 | 127.34031 | 25819 ft | 470 kts | 326° |
| 2026-04-15 03:28 | -2.25420 | 127.32282 | 26010 ft | 471 kts | 326° |
| 2026-04-15 03:28 | -2.22646 | 127.30527 | 26203 ft | 471 kts | 326° |
| 2026-04-15 03:28 | -2.19870 | 127.28767 | 26393 ft | 472 kts | 326° |
| 2026-04-15 03:28 | -2.17089 | 127.27010 | 26570 ft | 473 kts | 326° |
| 2026-04-15 03:29 | -2.14330 | 127.25273 | 26751 ft | 474 kts | 326° |
| 2026-04-15 03:29 | -2.11534 | 127.23516 | 26927 ft | 475 kts | 326° |
| 2026-04-15 03:29 | -2.08725 | 127.21752 | 27106 ft | 476 kts | 326° |
| 2026-04-15 03:29 | -2.05909 | 127.19983 | 27278 ft | 477 kts | 326° |
| 2026-04-15 03:30 | -2.03090 | 127.18212 | 27451 ft | 478 kts | 326° |
| 2026-04-15 03:30 | -2.00265 | 127.16437 | 27626 ft | 479 kts | 326° |
| 2026-04-15 03:30 | -1.97450 | 127.14665 | 27883 ft | 478 kts | 326° |
| 2026-04-15 03:30 | -1.94643 | 127.12897 | 28153 ft | 476 kts | 326° |
| 2026-04-15 03:31 | -1.91870 | 127.11151 | 28411 ft | 476 kts | 326° |
| 2026-04-15 03:31 | -1.89077 | 127.09392 | 28656 ft | 475 kts | 326° |
| 2026-04-15 03:31 | -1.86348 | 127.07674 | 28889 ft | 474 kts | 326° |
| 2026-04-15 03:31 | -1.83546 | 127.05913 | 29131 ft | 474 kts | 326° |
| 2026-04-15 03:32 | -1.80753 | 127.04162 | 29377 ft | 473 kts | 326° |
| 2026-04-15 03:32 | -1.77969 | 127.02415 | 29618 ft | 472 kts | 326° |
| 2026-04-15 03:32 | -1.75185 | 127.00662 | 29867 ft | 472 kts | 326° |
| 2026-04-15 03:32 | -1.72407 | 126.98915 | 30085 ft | 471 kts | 326° |
| 2026-04-15 03:33 | -1.69669 | 126.97195 | 30286 ft | 471 kts | 326° |
| 2026-04-15 03:33 | -1.66898 | 126.95455 | 30481 ft | 470 kts | 326° |
| 2026-04-15 03:33 | -1.64133 | 126.93715 | 30690 ft | 470 kts | 326° |
| 2026-04-15 03:33 | -1.61362 | 126.91971 | 30896 ft | 469 kts | 326° |
| 2026-04-15 03:34 | -1.58601 | 126.90232 | 31094 ft | 469 kts | 326° |
| 2026-04-15 03:34 | -1.55835 | 126.88493 | 31298 ft | 468 kts | 326° |
| 2026-04-15 03:34 | -1.53079 | 126.86761 | 31514 ft | 468 kts | 326° |
| 2026-04-15 03:34 | -1.50325 | 126.85026 | 31717 ft | 468 kts | 326° |
| 2026-04-15 03:35 | -1.47566 | 126.83289 | 31921 ft | 467 kts | 326° |
| 2026-04-15 03:35 | -1.44819 | 126.81563 | 32126 ft | 467 kts | 326° |
| 2026-04-15 03:35 | -1.42064 | 126.79836 | 32330 ft | 466 kts | 326° |
| 2026-04-15 03:35 | -1.39313 | 126.78112 | 32538 ft | 466 kts | 326° |
| 2026-04-15 03:36 | -1.36571 | 126.76389 | 32748 ft | 466 kts | 326° |
| 2026-04-15 03:36 | -1.33863 | 126.74685 | 32937 ft | 466 kts | 326° |
| 2026-04-15 03:36 | -1.31121 | 126.72958 | 33140 ft | 465 kts | 326° |
| 2026-04-15 03:36 | -1.28381 | 126.71232 | 33334 ft | 465 kts | 326° |
| 2026-04-15 03:37 | -1.25643 | 126.69511 | 33550 ft | 465 kts | 326° |
| 2026-04-15 03:37 | -1.22906 | 126.67790 | 33748 ft | 464 kts | 326° |
| 2026-04-15 03:37 | -1.20167 | 126.66069 | 33877 ft | 465 kts | 326° |
| 2026-04-15 03:37 | -1.17422 | 126.64342 | 33889 ft | 465 kts | 326° |
| 2026-04-15 03:38 | -1.11970 | 126.60917 | 33885 ft | 465 kts | 326° |
| 2026-04-15 03:38 | -1.06486 | 126.57476 | 33889 ft | 465 kts | 326° |
| 2026-04-15 03:39 | -1.00996 | 126.54027 | 33889 ft | 465 kts | 326° |
| 2026-04-15 03:39 | -0.95511 | 126.50583 | 33892 ft | 466 kts | 326° |
| 2026-04-15 03:40 | -0.90049 | 126.47153 | 33902 ft | 466 kts | 326° |
| 2026-04-15 03:40 | -0.84581 | 126.43647 | 33910 ft | 466 kts | 324° |
| 2026-04-15 03:41 | -0.79229 | 126.39967 | 33908 ft | 466 kts | 323° |
| 2026-04-15 03:41 | -0.73923 | 126.36258 | 33914 ft | 466 kts | 323° |
| 2026-04-15 03:42 | -0.68589 | 126.32583 | 33903 ft | 466 kts | 324° |
| 2026-04-15 03:42 | -0.63261 | 126.28966 | 33899 ft | 466 kts | 324° |
| 2026-04-15 03:43 | -0.57902 | 126.25329 | 33904 ft | 466 kts | 324° |
| 2026-04-15 03:43 | -0.52553 | 126.21673 | 33899 ft | 465 kts | 324° |
| 2026-04-15 03:44 | -0.47204 | 126.18010 | 33899 ft | 466 kts | 324° |
| 2026-04-15 03:44 | -0.41850 | 126.14349 | 33899 ft | 466 kts | 324° |
| 2026-04-15 03:45 | -0.36499 | 126.10700 | 33899 ft | 466 kts | 324° |
| 2026-04-15 03:45 | -0.31171 | 126.07072 | 33900 ft | 466 kts | 324° |
| 2026-04-15 03:46 | -0.25820 | 126.03420 | 33898 ft | 466 kts | 324° |
| 2026-04-15 03:46 | -0.20457 | 125.99754 | 33901 ft | 466 kts | 324° |
| 2026-04-15 03:47 | -0.15090 | 125.96090 | 33900 ft | 466 kts | 324° |
| 2026-04-15 03:47 | -0.09759 | 125.92453 | 33904 ft | 466 kts | 324° |
| 2026-04-15 03:48 | -0.04389 | 125.88790 | 33902 ft | 466 kts | 323° |
| 2026-04-15 03:48 | 0.00938 | 125.85149 | 33908 ft | 466 kts | 323° |
| 2026-04-15 03:49 | 0.06296 | 125.81487 | 33908 ft | 466 kts | 324° |
| 2026-04-15 03:49 | 0.11658 | 125.77842 | 33902 ft | 466 kts | 324° |
| 2026-04-15 03:50 | 0.17021 | 125.74193 | 33905 ft | 466 kts | 324° |
| 2026-04-15 03:50 | 0.22348 | 125.70551 | 33909 ft | 466 kts | 323° |
| 2026-04-15 03:51 | 0.27701 | 125.66893 | 33906 ft | 465 kts | 323° |
| 2026-04-15 03:51 | 0.33022 | 125.63269 | 33904 ft | 465 kts | 323° |
| 2026-04-15 03:52 | 0.38376 | 125.59617 | 33903 ft | 465 kts | 323° |
| 2026-04-15 03:52 | 0.43724 | 125.55962 | 33902 ft | 465 kts | 323° |
| 2026-04-15 03:53 | 0.49071 | 125.52310 | 33895 ft | 465 kts | 323° |
| 2026-04-15 03:53 | 0.54432 | 125.48660 | 33894 ft | 466 kts | 324° |
| 2026-04-15 03:54 | 0.59765 | 125.45032 | 33892 ft | 466 kts | 324° |
| 2026-04-15 03:55 | 0.67789 | 125.39547 | 33885 ft | 466 kts | 323° |
| 2026-04-15 03:55 | 0.73149 | 125.35885 | 33885 ft | 466 kts | 324° |
| 2026-04-15 03:56 | 0.78501 | 125.32236 | 33891 ft | 466 kts | 323° |
| 2026-04-15 03:56 | 0.83855 | 125.28583 | 33887 ft | 465 kts | 323° |
| 2026-04-15 03:57 | 0.89186 | 125.24951 | 33890 ft | 465 kts | 324° |
| 2026-04-15 03:57 | 0.94528 | 125.21310 | 33894 ft | 465 kts | 323° |
| 2026-04-15 03:58 | 0.99864 | 125.17658 | 33894 ft | 464 kts | 323° |
| 2026-04-15 03:58 | 1.05203 | 125.14011 | 33899 ft | 464 kts | 323° |
| 2026-04-15 03:59 | 1.10507 | 125.10396 | 33911 ft | 464 kts | 323° |
| 2026-04-15 03:59 | 1.15850 | 125.06753 | 33921 ft | 464 kts | 323° |
| 2026-04-15 04:00 | 1.21185 | 125.03108 | 33938 ft | 464 kts | 323° |
| 2026-04-15 04:00 | 1.26520 | 124.99468 | 33950 ft | 463 kts | 323° |
| 2026-04-15 04:01 | 1.31123 | 124.95124 | 33956 ft | 457 kts | 303° |
| 2026-04-15 04:01 | 1.33941 | 124.89501 | 33966 ft | 451 kts | 284° |
| 2026-04-15 04:02 | 1.35569 | 124.83450 | 33969 ft | 451 kts | 283° |
| 2026-04-15 04:02 | 1.37228 | 124.77400 | 33971 ft | 452 kts | 284° |
| 2026-04-15 04:03 | 1.38889 | 124.71349 | 33962 ft | 451 kts | 284° |
| 2026-04-15 04:03 | 1.40543 | 124.65285 | 33954 ft | 451 kts | 283° |
| 2026-04-15 04:04 | 1.42171 | 124.59259 | 33943 ft | 451 kts | 283° |
| 2026-04-15 04:04 | 1.43814 | 124.53201 | 33937 ft | 451 kts | 284° |
| 2026-04-15 04:05 | 1.45463 | 124.47136 | 33934 ft | 452 kts | 284° |
| 2026-04-15 04:05 | 1.47104 | 124.41063 | 33924 ft | 452 kts | 284° |
| 2026-04-15 04:06 | 1.48747 | 124.34994 | 33913 ft | 452 kts | 284° |
| 2026-04-15 04:06 | 1.50395 | 124.28930 | 33903 ft | 452 kts | 284° |
| 2026-04-15 04:07 | 1.52039 | 124.22852 | 33900 ft | 453 kts | 284° |
| 2026-04-15 04:07 | 1.53671 | 124.16814 | 33890 ft | 453 kts | 284° |
| 2026-04-15 04:08 | 1.55323 | 124.10727 | 33886 ft | 453 kts | 284° |
| 2026-04-15 04:08 | 1.56701 | 124.05667 | 33885 ft | 453 kts | 284° |
| 2026-04-15 04:09 | 1.58352 | 123.99576 | 33878 ft | 454 kts | 284° |
| 2026-04-15 04:09 | 1.60266 | 123.92487 | 33878 ft | 454 kts | 284° |
| 2026-04-15 04:10 | 1.61650 | 123.87381 | 33882 ft | 455 kts | 284° |
| 2026-04-15 04:10 | 1.63310 | 123.81267 | 33890 ft | 455 kts | 284° |
| 2026-04-15 04:11 | 1.64965 | 123.75155 | 33888 ft | 456 kts | 284° |
| 2026-04-15 04:11 | 1.66611 | 123.69074 | 33893 ft | 456 kts | 284° |
| 2026-04-15 04:12 | 1.68267 | 123.62948 | 33891 ft | 456 kts | 284° |
| 2026-04-15 04:12 | 1.69928 | 123.56823 | 33885 ft | 456 kts | 284° |
| 2026-04-15 04:13 | 1.71586 | 123.50706 | 33885 ft | 456 kts | 284° |
| 2026-04-15 04:13 | 1.73233 | 123.44615 | 33887 ft | 456 kts | 284° |
| 2026-04-15 04:14 | 1.74901 | 123.38454 | 33886 ft | 456 kts | 284° |
| 2026-04-15 04:14 | 1.76546 | 123.32366 | 33886 ft | 457 kts | 284° |
| 2026-04-15 04:15 | 1.78203 | 123.26233 | 33884 ft | 457 kts | 284° |
| 2026-04-15 04:15 | 1.79866 | 123.20102 | 33887 ft | 457 kts | 285° |
| 2026-04-15 04:16 | 1.81540 | 123.13969 | 33886 ft | 457 kts | 285° |
| 2026-04-15 04:16 | 1.83217 | 123.07834 | 33888 ft | 458 kts | 285° |
| 2026-04-15 04:17 | 1.84877 | 123.01726 | 33892 ft | 458 kts | 285° |
| 2026-04-15 04:17 | 1.86545 | 122.95579 | 33892 ft | 458 kts | 285° |
| 2026-04-15 04:18 | 1.88209 | 122.89427 | 33895 ft | 458 kts | 285° |
| 2026-04-15 04:18 | 1.89881 | 122.83273 | 33895 ft | 459 kts | 285° |
| 2026-04-15 04:19 | 1.91561 | 122.77108 | 33898 ft | 459 kts | 285° |
| 2026-04-15 04:19 | 1.93236 | 122.70946 | 33896 ft | 459 kts | 284° |
| 2026-04-15 04:20 | 1.94900 | 122.64773 | 33896 ft | 459 kts | 284° |
| 2026-04-15 04:20 | 1.96564 | 122.58631 | 33895 ft | 460 kts | 285° |
| 2026-04-15 04:21 | 1.98243 | 122.52450 | 33897 ft | 460 kts | 285° |
| 2026-04-15 04:21 | 1.99924 | 122.46277 | 33895 ft | 460 kts | 285° |
| 2026-04-15 04:22 | 2.01594 | 122.40146 | 33896 ft | 460 kts | 285° |
| 2026-04-15 04:22 | 2.03268 | 122.33978 | 33893 ft | 460 kts | 285° |
| 2026-04-15 04:23 | 2.04936 | 122.27804 | 33890 ft | 459 kts | 285° |
| 2026-04-15 04:23 | 2.06605 | 122.21625 | 33891 ft | 459 kts | 285° |
| 2026-04-15 04:24 | 2.08275 | 122.15457 | 33890 ft | 459 kts | 285° |
| 2026-04-15 04:24 | 2.09956 | 122.09294 | 33889 ft | 459 kts | 285° |
| 2026-04-15 04:25 | 2.11624 | 122.03124 | 33891 ft | 459 kts | 284° |
| 2026-04-15 04:25 | 2.13298 | 121.96953 | 33894 ft | 459 kts | 284° |
| 2026-04-15 04:26 | 2.14959 | 121.90829 | 33902 ft | 459 kts | 284° |
| 2026-04-15 04:26 | 2.16622 | 121.84675 | 33900 ft | 459 kts | 284° |
| 2026-04-15 04:27 | 2.18287 | 121.78517 | 33897 ft | 459 kts | 284° |
| 2026-04-15 04:27 | 2.19957 | 121.72354 | 33896 ft | 459 kts | 284° |
| 2026-04-15 04:28 | 2.21629 | 121.66186 | 33892 ft | 459 kts | 285° |
| 2026-04-15 04:28 | 2.23303 | 121.60011 | 33889 ft | 459 kts | 285° |
| 2026-04-15 04:29 | 2.24962 | 121.53878 | 33886 ft | 459 kts | 285° |
| 2026-04-15 04:29 | 2.26635 | 121.47692 | 33886 ft | 459 kts | 285° |
| 2026-04-15 04:30 | 2.28306 | 121.41519 | 33885 ft | 460 kts | 285° |
| 2026-04-15 04:30 | 2.29965 | 121.35374 | 33888 ft | 460 kts | 285° |
| 2026-04-15 04:31 | 2.31632 | 121.29204 | 33898 ft | 460 kts | 285° |
| 2026-04-15 04:31 | 2.33301 | 121.23027 | 33902 ft | 459 kts | 285° |
| 2026-04-15 04:32 | 2.34969 | 121.16852 | 33903 ft | 459 kts | 284° |
| 2026-04-15 04:32 | 2.36628 | 121.10716 | 33906 ft | 459 kts | 284° |
| 2026-04-15 04:33 | 2.38295 | 121.04548 | 33907 ft | 459 kts | 284° |
| 2026-04-15 04:33 | 2.39964 | 120.98374 | 33907 ft | 459 kts | 284° |
| 2026-04-15 04:34 | 2.41627 | 120.92210 | 33895 ft | 459 kts | 284° |
| 2026-04-15 04:34 | 2.43282 | 120.86066 | 33909 ft | 459 kts | 284° |
| 2026-04-15 04:35 | 2.44952 | 120.79901 | 33913 ft | 459 kts | 285° |
| 2026-04-15 04:35 | 2.46621 | 120.73747 | 33905 ft | 459 kts | 284° |
| 2026-04-15 04:36 | 2.48283 | 120.67585 | 33897 ft | 458 kts | 285° |
| 2026-04-15 04:36 | 2.49944 | 120.61429 | 33902 ft | 458 kts | 284° |
| 2026-04-15 04:37 | 2.51602 | 120.55274 | 33903 ft | 458 kts | 284° |
| 2026-04-15 04:37 | 2.53253 | 120.49166 | 33901 ft | 458 kts | 284° |
| 2026-04-15 04:38 | 2.54914 | 120.43008 | 33900 ft | 457 kts | 284° |
| 2026-04-15 04:38 | 2.56571 | 120.36860 | 33893 ft | 457 kts | 284° |
| 2026-04-15 04:39 | 2.58213 | 120.30762 | 33894 ft | 457 kts | 284° |
| 2026-04-15 04:39 | 2.59871 | 120.24616 | 33892 ft | 456 kts | 284° |
| 2026-04-15 04:40 | 2.61517 | 120.18481 | 33889 ft | 456 kts | 284° |
| 2026-04-15 04:40 | 2.63165 | 120.12359 | 33878 ft | 456 kts | 284° |
| 2026-04-15 04:41 | 2.64828 | 120.06237 | 33882 ft | 456 kts | 284° |
| 2026-04-15 04:41 | 2.66500 | 120.00114 | 33884 ft | 456 kts | 285° |
| 2026-04-15 04:42 | 2.68163 | 119.94028 | 33884 ft | 456 kts | 285° |
| 2026-04-15 04:42 | 2.69827 | 119.87907 | 33889 ft | 456 kts | 284° |
| 2026-04-15 04:43 | 2.71480 | 119.81775 | 33891 ft | 456 kts | 284° |
| 2026-04-15 04:43 | 2.73139 | 119.75644 | 33894 ft | 456 kts | 284° |
| 2026-04-15 04:44 | 2.74804 | 119.69507 | 33889 ft | 456 kts | 284° |
| 2026-04-15 04:44 | 2.76453 | 119.63420 | 33897 ft | 456 kts | 285° |
| 2026-04-15 04:45 | 2.78122 | 119.57292 | 33895 ft | 456 kts | 284° |
| 2026-04-15 04:45 | 2.79790 | 119.51160 | 33896 ft | 456 kts | 284° |
| 2026-04-15 04:46 | 2.81445 | 119.45029 | 33898 ft | 456 kts | 284° |
| 2026-04-15 04:46 | 2.83932 | 119.35823 | 33900 ft | 457 kts | 284° |
| 2026-04-15 04:47 | 2.85585 | 119.29735 | 33897 ft | 457 kts | 284° |
| 2026-04-15 04:47 | 2.87247 | 119.23586 | 33899 ft | 457 kts | 284° |
| 2026-04-15 04:48 | 2.89552 | 119.17685 | 33896 ft | 457 kts | 301° |
| 2026-04-15 04:48 | 2.93640 | 119.12862 | 33892 ft | 459 kts | 317° |
| 2026-04-15 04:49 | 2.98394 | 119.08577 | 33886 ft | 460 kts | 316° |
| 2026-04-15 04:49 | 3.03135 | 119.04258 | 33883 ft | 460 kts | 316° |
| 2026-04-15 04:50 | 3.07879 | 118.99944 | 33884 ft | 461 kts | 316° |
| 2026-04-15 04:50 | 3.12608 | 118.95655 | 33886 ft | 461 kts | 316° |
| 2026-04-15 04:51 | 3.17369 | 118.91332 | 33883 ft | 461 kts | 316° |
| 2026-04-15 04:51 | 3.21337 | 118.87795 | 33888 ft | 461 kts | 317° |
| 2026-04-15 04:52 | 3.26059 | 118.83496 | 33887 ft | 461 kts | 316° |
| 2026-04-15 04:52 | 3.30630 | 118.79283 | 33885 ft | 462 kts | 316° |
| 2026-04-15 04:53 | 3.35380 | 118.74941 | 33884 ft | 462 kts | 316° |
| 2026-04-15 04:53 | 3.40153 | 118.70614 | 33883 ft | 462 kts | 317° |
| 2026-04-15 04:54 | 3.44890 | 118.66327 | 33887 ft | 463 kts | 317° |
| 2026-04-15 04:54 | 3.49623 | 118.62019 | 33893 ft | 463 kts | 316° |
| 2026-04-15 04:55 | 3.53863 | 118.58149 | 33891 ft | 463 kts | 316° |
| 2026-04-15 04:55 | 3.58448 | 118.53977 | 33895 ft | 463 kts | 316° |
| 2026-04-15 04:56 | 3.63218 | 118.49649 | 33895 ft | 463 kts | 316° |
| 2026-04-15 04:56 | 3.67187 | 118.46044 | 33895 ft | 463 kts | 316° |
| 2026-04-15 04:57 | 3.71856 | 118.41798 | 33897 ft | 462 kts | 316° |
| 2026-04-15 04:57 | 3.76439 | 118.37625 | 33890 ft | 462 kts | 316° |
| 2026-04-15 04:58 | 3.81204 | 118.33280 | 33889 ft | 462 kts | 316° |
| 2026-04-15 04:58 | 3.85841 | 118.29054 | 33884 ft | 462 kts | 316° |
| 2026-04-15 04:59 | 3.90612 | 118.24717 | 33879 ft | 462 kts | 316° |
| 2026-04-15 04:59 | 3.95342 | 118.20409 | 33880 ft | 462 kts | 316° |
| 2026-04-15 05:00 | 4.00103 | 118.16073 | 33884 ft | 462 kts | 316° |
| 2026-04-15 05:00 | 4.04866 | 118.11738 | 33880 ft | 462 kts | 316° |
| 2026-04-15 05:01 | 4.09623 | 118.07411 | 33886 ft | 462 kts | 316° |
| 2026-04-15 05:01 | 4.14362 | 118.03101 | 33902 ft | 462 kts | 317° |
| 2026-04-15 05:02 | 4.19134 | 117.98745 | 33891 ft | 463 kts | 317° |
| 2026-04-15 05:02 | 4.23896 | 117.94397 | 33892 ft | 463 kts | 317° |
| 2026-04-15 05:03 | 4.28643 | 117.90068 | 33888 ft | 464 kts | 317° |
| 2026-04-15 05:03 | 4.33420 | 117.85707 | 33875 ft | 464 kts | 317° |
| 2026-04-15 05:04 | 4.38197 | 117.81348 | 33863 ft | 464 kts | 317° |
| 2026-04-15 05:04 | 4.42954 | 117.76957 | 33856 ft | 465 kts | 313° |
| 2026-04-15 05:05 | 4.46576 | 117.71676 | 33856 ft | 465 kts | 294° |
| 2026-04-15 05:05 | 4.48738 | 117.65561 | 33852 ft | 465 kts | 289° |
| 2026-04-15 05:06 | 4.50803 | 117.59415 | 33848 ft | 466 kts | 289° |
| 2026-04-15 05:06 | 4.52886 | 117.53256 | 33847 ft | 466 kts | 289° |
| 2026-04-15 05:07 | 4.54957 | 117.47090 | 33849 ft | 466 kts | 288° |
| 2026-04-15 05:07 | 4.57009 | 117.40959 | 33849 ft | 467 kts | 288° |
| 2026-04-15 05:08 | 4.59082 | 117.34776 | 33863 ft | 467 kts | 288° |
| 2026-04-15 05:08 | 4.61145 | 117.28638 | 33866 ft | 467 kts | 288° |
| 2026-04-15 05:09 | 4.63229 | 117.22474 | 33879 ft | 466 kts | 288° |
| 2026-04-15 05:09 | 4.65307 | 117.16294 | 33879 ft | 466 kts | 288° |
| 2026-04-15 05:10 | 4.67360 | 117.10162 | 33885 ft | 466 kts | 288° |
| 2026-04-15 05:10 | 4.69434 | 117.03998 | 33888 ft | 466 kts | 288° |
| 2026-04-15 05:11 | 4.71511 | 116.97854 | 33885 ft | 465 kts | 288° |
| 2026-04-15 05:11 | 4.73595 | 116.91711 | 33884 ft | 465 kts | 288° |
| 2026-04-15 05:12 | 4.75657 | 116.85607 | 33881 ft | 464 kts | 288° |
| 2026-04-15 05:12 | 4.77721 | 116.79461 | 33880 ft | 464 kts | 288° |
| 2026-04-15 05:13 | 4.79786 | 116.73335 | 33882 ft | 463 kts | 288° |
| 2026-04-15 05:13 | 4.81862 | 116.67207 | 33876 ft | 463 kts | 288° |
| 2026-04-15 05:14 | 4.83933 | 116.61079 | 33877 ft | 463 kts | 288° |
| 2026-04-15 05:14 | 4.85975 | 116.54992 | 33872 ft | 463 kts | 288° |
| 2026-04-15 05:15 | 4.88038 | 116.48860 | 33871 ft | 463 kts | 288° |
| 2026-04-15 05:15 | 4.90087 | 116.42784 | 33868 ft | 462 kts | 288° |
| 2026-04-15 05:16 | 4.92134 | 116.36672 | 33866 ft | 462 kts | 288° |
| 2026-04-15 05:16 | 4.94165 | 116.30560 | 33865 ft | 461 kts | 288° |
| 2026-04-15 05:17 | 4.96198 | 116.24453 | 33860 ft | 461 kts | 288° |
| 2026-04-15 05:17 | 4.98218 | 116.18383 | 33856 ft | 461 kts | 288° |
| 2026-04-15 05:18 | 5.00249 | 116.12280 | 33854 ft | 461 kts | 288° |
| 2026-04-15 05:18 | 5.02281 | 116.06168 | 33849 ft | 461 kts | 288° |
| 2026-04-15 05:19 | 5.04298 | 116.00104 | 33851 ft | 461 kts | 288° |
| 2026-04-15 05:19 | 5.06336 | 115.93998 | 33854 ft | 461 kts | 288° |
| 2026-04-15 05:20 | 5.08369 | 115.87892 | 33850 ft | 461 kts | 288° |
| 2026-04-15 05:20 | 5.10400 | 115.81788 | 33849 ft | 461 kts | 288° |
| 2026-04-15 05:21 | 5.12432 | 115.75678 | 33851 ft | 461 kts | 288° |
| 2026-04-15 05:21 | 5.14449 | 115.69594 | 33848 ft | 461 kts | 288° |
| 2026-04-15 05:22 | 5.16477 | 115.63478 | 33845 ft | 461 kts | 288° |
| 2026-04-15 05:22 | 5.18509 | 115.57365 | 33847 ft | 462 kts | 288° |
| 2026-04-15 05:23 | 5.20531 | 115.51290 | 33848 ft | 462 kts | 288° |
| 2026-04-15 05:23 | 5.22569 | 115.45168 | 33855 ft | 462 kts | 288° |
| 2026-04-15 05:24 | 5.24599 | 115.39050 | 33854 ft | 462 kts | 288° |
| 2026-04-15 05:24 | 5.26610 | 115.32963 | 33855 ft | 462 kts | 288° |
| 2026-04-15 05:25 | 5.28614 | 115.26823 | 33853 ft | 462 kts | 284° |
| 2026-04-15 05:25 | 5.29535 | 115.20454 | 33857 ft | 462 kts | 276° |
| 2026-04-15 05:26 | 5.30222 | 115.14030 | 33852 ft | 462 kts | 276° |
| 2026-04-15 05:26 | 5.30923 | 115.07646 | 33857 ft | 462 kts | 276° |
| 2026-04-15 05:27 | 5.31629 | 115.01229 | 33870 ft | 462 kts | 276° |
| 2026-04-15 05:27 | 5.32389 | 114.94855 | 33873 ft | 462 kts | 276° |
| 2026-04-15 05:28 | 5.33185 | 114.88442 | 33877 ft | 462 kts | 276° |
| 2026-04-15 05:28 | 5.33959 | 114.82030 | 33874 ft | 462 kts | 276° |
| 2026-04-15 05:29 | 5.34717 | 114.75663 | 33875 ft | 462 kts | 276° |
| 2026-04-15 05:29 | 5.35487 | 114.69249 | 33872 ft | 462 kts | 276° |
| 2026-04-15 05:30 | 5.36259 | 114.62829 | 33879 ft | 462 kts | 276° |
| 2026-04-15 05:30 | 5.37014 | 114.56457 | 33872 ft | 462 kts | 276° |
| 2026-04-15 05:31 | 5.37774 | 114.50046 | 33872 ft | 462 kts | 276° |
| 2026-04-15 05:31 | 5.38530 | 114.43636 | 33874 ft | 462 kts | 276° |
| 2026-04-15 05:32 | 5.39279 | 114.37261 | 33878 ft | 462 kts | 276° |
| 2026-04-15 05:32 | 5.40044 | 114.30855 | 33875 ft | 462 kts | 276° |
| 2026-04-15 05:33 | 5.40814 | 114.24437 | 33876 ft | 462 kts | 276° |
| 2026-04-15 05:33 | 5.41567 | 114.18019 | 33874 ft | 462 kts | 277° |
| 2026-04-15 05:34 | 5.43292 | 114.11875 | 33868 ft | 462 kts | 295° |
| 2026-04-15 05:34 | 5.46790 | 114.06452 | 33864 ft | 463 kts | 306° |
| 2026-04-15 05:35 | 5.50549 | 114.01250 | 33865 ft | 463 kts | 305° |
| 2026-04-15 05:35 | 5.54325 | 113.95996 | 33860 ft | 464 kts | 305° |
| 2026-04-15 05:36 | 5.58093 | 113.90758 | 33862 ft | 464 kts | 306° |
| 2026-04-15 05:36 | 5.61886 | 113.85494 | 33864 ft | 464 kts | 306° |
| 2026-04-15 05:37 | 5.65686 | 113.80226 | 33865 ft | 465 kts | 306° |
| 2026-04-15 05:37 | 5.69455 | 113.74988 | 33866 ft | 465 kts | 306° |
| 2026-04-15 05:38 | 5.73252 | 113.69708 | 33870 ft | 466 kts | 306° |
| 2026-04-15 05:38 | 5.77057 | 113.64421 | 33871 ft | 466 kts | 306° |
| 2026-04-15 05:39 | 5.80839 | 113.59163 | 33873 ft | 467 kts | 306° |
| 2026-04-15 05:39 | 5.84645 | 113.53873 | 33871 ft | 467 kts | 306° |
| 2026-04-15 05:40 | 5.88436 | 113.48603 | 33870 ft | 467 kts | 306° |
| 2026-04-15 05:40 | 5.92252 | 113.43298 | 33876 ft | 467 kts | 306° |
| 2026-04-15 05:41 | 5.96045 | 113.38017 | 33872 ft | 467 kts | 306° |
| 2026-04-15 05:41 | 5.99858 | 113.32712 | 33874 ft | 468 kts | 306° |
| 2026-04-15 05:42 | 6.03685 | 113.27419 | 33873 ft | 468 kts | 306° |
| 2026-04-15 05:42 | 6.07524 | 113.22117 | 33873 ft | 469 kts | 306° |
| 2026-04-15 05:43 | 6.10707 | 113.17710 | 33873 ft | 469 kts | 306° |
| 2026-04-15 05:43 | 6.15160 | 113.11505 | 33878 ft | 470 kts | 306° |
| 2026-04-15 05:44 | 6.18971 | 113.06212 | 33880 ft | 470 kts | 306° |
| 2026-04-15 05:44 | 6.22169 | 113.01779 | 33886 ft | 470 kts | 306° |
| 2026-04-15 05:45 | 6.26013 | 112.96444 | 33886 ft | 470 kts | 306° |
| 2026-04-15 05:45 | 6.29858 | 112.91105 | 33891 ft | 470 kts | 306° |
| 2026-04-15 05:46 | 6.33674 | 112.85810 | 33890 ft | 470 kts | 306° |
| 2026-04-15 05:46 | 6.37522 | 112.80478 | 33882 ft | 470 kts | 306° |
| 2026-04-15 05:47 | 6.41366 | 112.75134 | 33885 ft | 470 kts | 306° |
| 2026-04-15 05:47 | 6.45194 | 112.69801 | 33885 ft | 471 kts | 306° |
| 2026-04-15 05:48 | 6.49011 | 112.64485 | 33883 ft | 471 kts | 306° |
| 2026-04-15 05:48 | 6.52857 | 112.59133 | 33884 ft | 471 kts | 306° |
| 2026-04-15 05:49 | 6.56700 | 112.53783 | 33882 ft | 472 kts | 306° |
| 2026-04-15 05:49 | 6.60517 | 112.48454 | 33886 ft | 472 kts | 306° |
| 2026-04-15 05:50 | 6.64360 | 112.43088 | 33884 ft | 472 kts | 305° |
| 2026-04-15 05:51 | 6.70107 | 112.35035 | 33889 ft | 472 kts | 305° |
| 2026-04-15 05:51 | 6.73925 | 112.29690 | 33889 ft | 472 kts | 305° |
| 2026-04-15 05:52 | 6.77763 | 112.24324 | 33891 ft | 471 kts | 305° |
| 2026-04-15 05:52 | 6.81602 | 112.18961 | 33889 ft | 471 kts | 305° |
| 2026-04-15 05:53 | 6.85407 | 112.13639 | 33884 ft | 471 kts | 306° |
| 2026-04-15 05:53 | 6.89244 | 112.08280 | 33876 ft | 471 kts | 305° |
| 2026-04-15 05:54 | 6.93072 | 112.02914 | 33875 ft | 471 kts | 305° |
| 2026-04-15 05:54 | 6.96891 | 111.97552 | 33873 ft | 471 kts | 305° |
| 2026-04-15 05:55 | 7.00690 | 111.92225 | 33876 ft | 471 kts | 305° |
| 2026-04-15 05:55 | 7.04517 | 111.86861 | 33879 ft | 472 kts | 305° |
| 2026-04-15 05:56 | 7.08349 | 111.81491 | 33876 ft | 472 kts | 305° |
| 2026-04-15 05:56 | 7.12184 | 111.76121 | 33880 ft | 472 kts | 305° |
| 2026-04-15 05:57 | 7.16013 | 111.70748 | 33883 ft | 472 kts | 305° |
| 2026-04-15 05:57 | 7.19819 | 111.65404 | 33887 ft | 472 kts | 305° |
| 2026-04-15 05:58 | 7.23644 | 111.60033 | 33889 ft | 472 kts | 305° |
| 2026-04-15 05:58 | 7.27476 | 111.54647 | 33888 ft | 472 kts | 305° |
| 2026-04-15 05:59 | 7.31276 | 111.49310 | 33889 ft | 472 kts | 305° |
| 2026-04-15 05:59 | 7.35101 | 111.43929 | 33888 ft | 472 kts | 305° |
| 2026-04-15 06:00 | 7.38926 | 111.38538 | 33896 ft | 472 kts | 305° |
| 2026-04-15 06:00 | 7.42744 | 111.33156 | 33893 ft | 472 kts | 305° |
| 2026-04-15 06:01 | 7.46540 | 111.27803 | 33892 ft | 472 kts | 305° |
| 2026-04-15 06:01 | 7.50357 | 111.22418 | 33893 ft | 471 kts | 305° |
| 2026-04-15 06:02 | 7.54182 | 111.17033 | 33897 ft | 471 kts | 305° |
| 2026-04-15 06:02 | 7.57975 | 111.11686 | 33897 ft | 471 kts | 305° |
| 2026-04-15 06:03 | 7.61778 | 111.06316 | 33897 ft | 470 kts | 305° |
| 2026-04-15 06:03 | 7.65583 | 111.00942 | 33892 ft | 470 kts | 305° |
| 2026-04-15 06:04 | 7.69388 | 110.95569 | 33896 ft | 470 kts | 305° |
| 2026-04-15 06:04 | 7.73166 | 110.90238 | 33894 ft | 470 kts | 305° |
| 2026-04-15 06:05 | 7.76969 | 110.84876 | 33893 ft | 469 kts | 305° |
| 2026-04-15 06:05 | 7.80773 | 110.79518 | 33889 ft | 469 kts | 305° |
| 2026-04-15 06:06 | 7.84543 | 110.74183 | 33887 ft | 469 kts | 305° |
| 2026-04-15 06:06 | 7.88336 | 110.68808 | 33892 ft | 469 kts | 305° |
| 2026-04-15 06:07 | 7.92126 | 110.63448 | 33896 ft | 469 kts | 305° |
| 2026-04-15 06:07 | 7.95908 | 110.58088 | 33894 ft | 468 kts | 305° |
| 2026-04-15 06:08 | 7.99681 | 110.52757 | 33897 ft | 468 kts | 306° |
| 2026-04-15 06:08 | 8.03440 | 110.47428 | 33895 ft | 467 kts | 305° |
| 2026-04-15 06:09 | 8.07213 | 110.42082 | 33893 ft | 467 kts | 306° |
| 2026-04-15 06:09 | 8.10985 | 110.36749 | 33887 ft | 466 kts | 306° |
| 2026-04-15 06:10 | 8.14752 | 110.31416 | 33889 ft | 466 kts | 306° |
| 2026-04-15 06:10 | 8.18486 | 110.26114 | 33885 ft | 466 kts | 306° |
| 2026-04-15 06:11 | 8.22248 | 110.20777 | 33884 ft | 466 kts | 306° |
| 2026-04-15 06:11 | 8.26019 | 110.15448 | 33888 ft | 465 kts | 306° |
| 2026-04-15 06:12 | 8.29778 | 110.10132 | 33887 ft | 465 kts | 306° |
| 2026-04-15 06:12 | 8.33518 | 110.04846 | 33892 ft | 464 kts | 306° |
| 2026-04-15 06:13 | 8.37283 | 109.99543 | 33889 ft | 464 kts | 306° |
| 2026-04-15 06:13 | 8.41043 | 109.94233 | 33893 ft | 464 kts | 306° |
| 2026-04-15 06:14 | 8.44765 | 109.88961 | 33889 ft | 463 kts | 306° |
| 2026-04-15 06:14 | 8.48515 | 109.83652 | 33894 ft | 463 kts | 306° |
| 2026-04-15 06:15 | 8.52266 | 109.78358 | 33893 ft | 463 kts | 306° |
| 2026-04-15 06:15 | 8.56015 | 109.73055 | 33895 ft | 463 kts | 306° |
| 2026-04-15 06:16 | 8.59733 | 109.67790 | 33898 ft | 463 kts | 306° |
| 2026-04-15 06:16 | 8.63474 | 109.62478 | 33902 ft | 463 kts | 306° |
| 2026-04-15 06:17 | 8.67193 | 109.57198 | 33904 ft | 462 kts | 306° |
| 2026-04-15 06:17 | 8.70930 | 109.51899 | 33904 ft | 462 kts | 306° |
| 2026-04-15 06:18 | 8.74665 | 109.46608 | 33906 ft | 462 kts | 306° |
| 2026-04-15 06:18 | 8.78403 | 109.41320 | 33903 ft | 462 kts | 306° |
| 2026-04-15 06:19 | 8.82113 | 109.36049 | 33902 ft | 462 kts | 306° |
| 2026-04-15 06:19 | 8.85837 | 109.30747 | 33901 ft | 461 kts | 306° |
| 2026-04-15 06:20 | 8.89540 | 109.25472 | 33902 ft | 461 kts | 306° |
| 2026-04-15 06:20 | 8.93242 | 109.20173 | 33903 ft | 461 kts | 305° |
| 2026-04-15 06:21 | 8.96946 | 109.14875 | 33901 ft | 461 kts | 305° |
| 2026-04-15 06:21 | 9.00635 | 109.09609 | 33898 ft | 460 kts | 305° |
| 2026-04-15 06:22 | 9.04341 | 109.04317 | 33893 ft | 460 kts | 305° |
| 2026-04-15 06:22 | 9.08040 | 108.99030 | 33894 ft | 460 kts | 305° |
| 2026-04-15 06:23 | 9.11747 | 108.93734 | 33890 ft | 460 kts | 305° |
| 2026-04-15 06:23 | 9.15428 | 108.88472 | 33892 ft | 460 kts | 305° |
| 2026-04-15 06:24 | 9.19120 | 108.83184 | 33892 ft | 459 kts | 305° |
| 2026-04-15 06:24 | 9.22817 | 108.77895 | 33886 ft | 459 kts | 305° |
| 2026-04-15 06:25 | 9.26481 | 108.72642 | 33888 ft | 459 kts | 305° |
| 2026-04-15 06:25 | 9.30175 | 108.67339 | 33886 ft | 459 kts | 305° |
| 2026-04-15 06:26 | 9.33841 | 108.62083 | 33884 ft | 459 kts | 305° |
| 2026-04-15 06:26 | 9.37537 | 108.56789 | 33886 ft | 459 kts | 305° |
| 2026-04-15 06:27 | 9.41229 | 108.51495 | 33881 ft | 459 kts | 305° |
| 2026-04-15 06:27 | 9.44917 | 108.46203 | 33878 ft | 459 kts | 305° |
| 2026-04-15 06:28 | 9.48632 | 108.40977 | 33880 ft | 459 kts | 307° |
| 2026-04-15 06:28 | 9.52540 | 108.35840 | 33881 ft | 459 kts | 308° |
| 2026-04-15 06:29 | 9.56476 | 108.30734 | 33874 ft | 459 kts | 307° |
| 2026-04-15 06:29 | 9.60381 | 108.25606 | 33876 ft | 459 kts | 307° |
| 2026-04-15 06:30 | 9.64272 | 108.20463 | 33874 ft | 459 kts | 307° |
| 2026-04-15 06:30 | 9.68129 | 108.15351 | 33876 ft | 459 kts | 307° |
| 2026-04-15 06:31 | 9.72010 | 108.10200 | 33878 ft | 459 kts | 307° |
| 2026-04-15 06:31 | 9.75235 | 108.05919 | 33875 ft | 459 kts | 307° |
| 2026-04-15 06:32 | 9.79117 | 108.00766 | 33880 ft | 459 kts | 307° |
| 2026-04-15 06:32 | 9.82979 | 107.95637 | 33881 ft | 459 kts | 307° |
| 2026-04-15 06:33 | 9.87497 | 107.89638 | 33879 ft | 459 kts | 307° |
| 2026-04-15 06:33 | 9.90747 | 107.85323 | 33878 ft | 459 kts | 307° |
| 2026-04-15 06:34 | 9.94598 | 107.80211 | 33877 ft | 459 kts | 307° |
| 2026-04-15 06:34 | 9.98479 | 107.75063 | 33874 ft | 459 kts | 307° |
| 2026-04-15 06:35 | 10.02356 | 107.69904 | 33876 ft | 459 kts | 307° |
| 2026-04-15 06:35 | 10.06202 | 107.64781 | 33877 ft | 458 kts | 307° |
| 2026-04-15 06:36 | 10.10084 | 107.59620 | 33874 ft | 458 kts | 307° |
| 2026-04-15 06:36 | 10.13939 | 107.54497 | 33872 ft | 458 kts | 307° |
| 2026-04-15 06:37 | 10.17814 | 107.49353 | 33875 ft | 458 kts | 307° |
| 2026-04-15 06:37 | 10.21705 | 107.44209 | 33882 ft | 458 kts | 307° |
| 2026-04-15 06:38 | 10.25589 | 107.39070 | 33870 ft | 458 kts | 307° |
| 2026-04-15 06:38 | 10.29466 | 107.33927 | 33868 ft | 458 kts | 307° |
| 2026-04-15 06:39 | 10.33315 | 107.28817 | 33870 ft | 458 kts | 306° |
| 2026-04-15 06:39 | 10.37197 | 107.23665 | 33869 ft | 458 kts | 307° |
| 2026-04-15 06:40 | 10.41081 | 107.18513 | 33868 ft | 458 kts | 307° |
| 2026-04-15 06:40 | 10.44966 | 107.13375 | 33864 ft | 458 kts | 307° |
| 2026-04-15 06:41 | 10.48840 | 107.08234 | 33867 ft | 458 kts | 306° |
| 2026-04-15 06:41 | 10.52696 | 107.03139 | 33861 ft | 458 kts | 307° |
| 2026-04-15 06:42 | 10.53487 | 107.02097 | 33866 ft | 457 kts | 306° |
| 2026-04-15 06:42 | 10.57328 | 106.96991 | 33864 ft | 458 kts | 307° |
| 2026-04-15 06:43 | 10.61287 | 106.91910 | 33864 ft | 458 kts | 307° |
| 2026-04-15 06:43 | 10.65231 | 106.86829 | 33859 ft | 458 kts | 307° |
| 2026-04-15 06:44 | 10.69135 | 106.81719 | 33858 ft | 458 kts | 307° |
| 2026-04-15 06:44 | 10.73014 | 106.76619 | 33858 ft | 458 kts | 307° |
| 2026-04-15 06:45 | 10.76928 | 106.71489 | 33851 ft | 458 kts | 307° |
| 2026-04-15 06:45 | 10.80825 | 106.66358 | 33842 ft | 458 kts | 304° |
| 2026-04-15 06:46 | 10.83753 | 106.60629 | 33847 ft | 457 kts | 292° |
| 2026-04-15 06:46 | 10.86283 | 106.54738 | 33853 ft | 457 kts | 293° |
| 2026-04-15 06:47 | 10.88853 | 106.48809 | 33844 ft | 458 kts | 293° |
| 2026-04-15 06:47 | 10.91429 | 106.42868 | 33840 ft | 458 kts | 293° |
| 2026-04-15 06:48 | 10.93975 | 106.36964 | 33844 ft | 458 kts | 293° |
| 2026-04-15 06:48 | 10.96538 | 106.31026 | 33836 ft | 458 kts | 293° |
| 2026-04-15 06:49 | 10.99107 | 106.25078 | 33827 ft | 458 kts | 293° |
| 2026-04-15 06:49 | 11.01679 | 106.19119 | 33839 ft | 458 kts | 292° |
| 2026-04-15 06:50 | 11.05307 | 106.10145 | 33837 ft | 458 kts | 290° |
| 2026-04-15 06:50 | 11.07626 | 106.04086 | 33833 ft | 458 kts | 290° |
| 2026-04-15 06:51 | 11.09835 | 105.98034 | 33829 ft | 457 kts | 284° |
| 2026-04-15 06:51 | 11.10456 | 105.91617 | 33830 ft | 455 kts | 265° |
| 2026-04-15 06:52 | 11.09575 | 105.85230 | 33837 ft | 455 kts | 261° |
| 2026-04-15 06:52 | 11.08648 | 105.78850 | 33826 ft | 455 kts | 261° |
| 2026-04-15 06:53 | 11.07755 | 105.72495 | 33828 ft | 455 kts | 264° |
| 2026-04-15 06:53 | 11.08155 | 105.66079 | 33837 ft | 456 kts | 283° |
| 2026-04-15 06:54 | 11.10171 | 105.59940 | 33824 ft | 457 kts | 288° |
| 2026-04-15 06:54 | 11.12285 | 105.53867 | 33836 ft | 457 kts | 288° |
| 2026-04-15 06:55 | 11.14408 | 105.47755 | 33833 ft | 457 kts | 288° |
| 2026-04-15 06:55 | 11.16538 | 105.41637 | 33825 ft | 457 kts | 288° |
| 2026-04-15 06:56 | 11.18665 | 105.35523 | 33831 ft | 457 kts | 288° |
| 2026-04-15 06:56 | 11.20788 | 105.29416 | 33822 ft | 457 kts | 288° |
| 2026-04-15 06:57 | 11.22897 | 105.23337 | 33835 ft | 457 kts | 288° |
| 2026-04-15 06:57 | 11.25016 | 105.17224 | 33819 ft | 457 kts | 288° |
| 2026-04-15 06:58 | 11.27135 | 105.11108 | 33823 ft | 457 kts | 288° |
| 2026-04-15 06:58 | 11.29253 | 105.04993 | 33811 ft | 457 kts | 288° |
| 2026-04-15 06:59 | 11.31359 | 104.98923 | 33807 ft | 457 kts | 288° |
| 2026-04-15 06:59 | 11.33479 | 104.92812 | 33819 ft | 457 kts | 288° |
| 2026-04-15 07:00 | 11.36352 | 104.87038 | 33821 ft | 458 kts | 301° |
| 2026-04-15 07:00 | 11.39749 | 104.81528 | 33803 ft | 459 kts | 301° |
| 2026-04-15 07:01 | 11.43128 | 104.76049 | 33808 ft | 458 kts | 300° |
| 2026-04-15 07:01 | 11.46512 | 104.70530 | 33816 ft | 458 kts | 300° |
| 2026-04-15 07:02 | 11.49898 | 104.65002 | 33804 ft | 458 kts | 300° |
| 2026-04-15 07:02 | 11.53266 | 104.59516 | 33810 ft | 458 kts | 300° |
| 2026-04-15 07:03 | 11.56651 | 104.53984 | 33813 ft | 458 kts | 300° |
| 2026-04-15 07:03 | 11.60022 | 104.48477 | 33810 ft | 458 kts | 300° |
| 2026-04-15 07:04 | 11.63377 | 104.42988 | 33811 ft | 458 kts | 300° |
| 2026-04-15 07:04 | 11.66747 | 104.37474 | 33814 ft | 458 kts | 300° |
| 2026-04-15 07:05 | 11.70125 | 104.31949 | 33808 ft | 458 kts | 300° |
| 2026-04-15 07:05 | 11.73501 | 104.26426 | 33816 ft | 458 kts | 300° |
| 2026-04-15 07:06 | 11.76852 | 104.20932 | 33825 ft | 458 kts | 300° |
| 2026-04-15 07:06 | 11.80222 | 104.15407 | 33829 ft | 458 kts | 300° |
| 2026-04-15 07:07 | 11.83574 | 104.09918 | 33817 ft | 458 kts | 301° |
| 2026-04-15 07:07 | 11.86947 | 104.04381 | 33830 ft | 458 kts | 300° |
| 2026-04-15 07:08 | 11.90315 | 103.98843 | 33811 ft | 458 kts | 301° |
| 2026-04-15 07:08 | 11.93665 | 103.93339 | 33816 ft | 458 kts | 301° |
| 2026-04-15 07:09 | 11.97038 | 103.87789 | 33818 ft | 458 kts | 301° |
| 2026-04-15 07:09 | 12.00389 | 103.82269 | 33818 ft | 459 kts | 301° |
| 2026-04-15 07:10 | 12.03744 | 103.76740 | 33838 ft | 459 kts | 301° |
| 2026-04-15 07:10 | 12.07119 | 103.71182 | 33826 ft | 459 kts | 301° |
| 2026-04-15 07:11 | 12.10473 | 103.65655 | 33845 ft | 460 kts | 301° |
| 2026-04-15 07:11 | 12.13852 | 103.60078 | 33849 ft | 460 kts | 300° |
| 2026-04-15 07:12 | 12.17237 | 103.54499 | 33846 ft | 460 kts | 300° |
| 2026-04-15 07:12 | 12.20590 | 103.48957 | 33848 ft | 461 kts | 300° |
| 2026-04-15 07:13 | 12.23966 | 103.43380 | 33838 ft | 461 kts | 301° |
| 2026-04-15 07:13 | 12.27342 | 103.37791 | 33851 ft | 461 kts | 300° |
| 2026-04-15 07:14 | 12.30683 | 103.32250 | 33849 ft | 460 kts | 300° |
| 2026-04-15 07:14 | 12.34045 | 103.26668 | 33846 ft | 460 kts | 300° |
| 2026-04-15 07:15 | 12.37426 | 103.21086 | 33847 ft | 460 kts | 301° |
| 2026-04-15 07:15 | 12.40800 | 103.15509 | 33845 ft | 460 kts | 301° |
| 2026-04-15 07:16 | 12.44139 | 103.09965 | 33842 ft | 460 kts | 300° |
| 2026-04-15 07:16 | 12.47495 | 103.04384 | 33834 ft | 460 kts | 300° |
| 2026-04-15 07:17 | 12.50855 | 102.98804 | 33836 ft | 460 kts | 300° |
| 2026-04-15 07:17 | 12.54199 | 102.93233 | 33836 ft | 460 kts | 300° |
| 2026-04-15 07:18 | 12.57555 | 102.87648 | 33829 ft | 460 kts | 300° |
| 2026-04-15 07:18 | 12.60927 | 102.82066 | 33838 ft | 460 kts | 300° |
| 2026-04-15 07:19 | 12.64294 | 102.76472 | 33828 ft | 460 kts | 300° |
| 2026-04-15 07:19 | 12.67629 | 102.70918 | 33833 ft | 460 kts | 300° |
| 2026-04-15 07:20 | 12.70424 | 102.66262 | 33827 ft | 460 kts | 300° |
| 2026-04-15 07:20 | 12.73781 | 102.60661 | 33840 ft | 460 kts | 300° |
| 2026-04-15 07:21 | 12.77109 | 102.55105 | 33852 ft | 461 kts | 300° |
| 2026-04-15 07:21 | 12.79814 | 102.49192 | 33833 ft | 458 kts | 290° |
| 2026-04-15 07:22 | 12.82132 | 102.43101 | 33851 ft | 458 kts | 290° |
| 2026-04-15 07:22 | 12.84452 | 102.37013 | 33851 ft | 458 kts | 290° |
| 2026-04-15 07:23 | 12.86783 | 102.30922 | 33857 ft | 458 kts | 290° |
| 2026-04-15 07:23 | 12.89104 | 102.24840 | 33849 ft | 458 kts | 290° |
| 2026-04-15 07:24 | 12.91418 | 102.18752 | 33852 ft | 458 kts | 290° |
| 2026-04-15 07:24 | 12.93712 | 102.12703 | 33844 ft | 458 kts | 290° |
| 2026-04-15 07:25 | 12.96035 | 102.06596 | 33843 ft | 458 kts | 290° |
| 2026-04-15 07:25 | 12.98357 | 102.00500 | 33844 ft | 458 kts | 290° |
| 2026-04-15 07:26 | 13.00635 | 101.94448 | 33842 ft | 458 kts | 289° |
| 2026-04-15 07:26 | 13.02939 | 101.88334 | 33836 ft | 458 kts | 290° |
| 2026-04-15 07:27 | 13.05259 | 101.82241 | 33833 ft | 458 kts | 290° |
| 2026-04-15 07:27 | 13.07565 | 101.76152 | 33834 ft | 459 kts | 290° |
| 2026-04-15 07:28 | 13.09864 | 101.70062 | 33641 ft | 460 kts | 290° |
| 2026-04-15 07:28 | 13.11026 | 101.66982 | 33385 ft | 460 kts | 290° |
| 2026-04-15 07:28 | 13.12169 | 101.63949 | 33135 ft | 461 kts | 290° |
| 2026-04-15 07:29 | 13.13334 | 101.60857 | 32281 ft | 466 kts | 290° |
| 2026-04-15 07:29 | 13.14518 | 101.57717 | 31239 ft | 473 kts | 290° |
| 2026-04-15 07:29 | 13.15698 | 101.54593 | 30273 ft | 477 kts | 290° |
| 2026-04-15 07:29 | 13.16914 | 101.51371 | 29050 ft | 485 kts | 290° |
| 2026-04-15 07:30 | 13.18143 | 101.48114 | 27857 ft | 489 kts | 290° |
| 2026-04-15 07:30 | 13.19377 | 101.44843 | 26810 ft | 492 kts | 291° |
| 2026-04-15 07:30 | 13.20584 | 101.41635 | 26146 ft | 485 kts | 291° |
| 2026-04-15 07:30 | 13.21794 | 101.38413 | 25356 ft | 482 kts | 291° |
| 2026-04-15 07:31 | 13.22992 | 101.35225 | 24602 ft | 477 kts | 291° |
| 2026-04-15 07:31 | 13.24184 | 101.32050 | 23843 ft | 474 kts | 292° |
| 2026-04-15 07:31 | 13.25368 | 101.28896 | 23050 ft | 471 kts | 292° |
| 2026-04-15 07:31 | 13.26540 | 101.25777 | 22327 ft | 465 kts | 292° |
| 2026-04-15 07:32 | 13.27681 | 101.22736 | 21953 ft | 453 kts | 292° |
| 2026-04-15 07:32 | 13.28794 | 101.19765 | 21816 ft | 437 kts | 292° |
| 2026-04-15 07:32 | 13.29689 | 101.16842 | 21686 ft | 422 kts | 282° |
| 2026-04-15 07:32 | 13.30197 | 101.13941 | 21521 ft | 408 kts | 281° |
| 2026-04-15 07:33 | 13.30694 | 101.11104 | 21277 ft | 400 kts | 281° |
| 2026-04-15 07:33 | 13.31205 | 101.08292 | 21032 ft | 396 kts | 281° |
| 2026-04-15 07:33 | 13.31715 | 101.05532 | 20792 ft | 394 kts | 281° |
| 2026-04-15 07:33 | 13.32227 | 101.02761 | 20550 ft | 393 kts | 281° |
| 2026-04-15 07:34 | 13.32722 | 101.00040 | 20314 ft | 391 kts | 281° |
| 2026-04-15 07:34 | 13.33217 | 100.97285 | 20079 ft | 389 kts | 281° |
| 2026-04-15 07:34 | 13.33705 | 100.94550 | 19842 ft | 388 kts | 281° |
| 2026-04-15 07:34 | 13.34118 | 100.92218 | 19816 ft | 387 kts | 281° |
| 2026-04-15 07:35 | 13.34602 | 100.89491 | 19837 ft | 387 kts | 281° |
| 2026-04-15 07:35 | 13.35087 | 100.86791 | 19840 ft | 387 kts | 281° |
| 2026-04-15 07:35 | 13.35576 | 100.84069 | 19840 ft | 387 kts | 281° |
| 2026-04-15 07:35 | 13.36058 | 100.81370 | 19839 ft | 387 kts | 281° |
| 2026-04-15 07:36 | 13.36542 | 100.78646 | 19836 ft | 387 kts | 281° |
| 2026-04-15 07:36 | 13.37027 | 100.75913 | 19837 ft | 387 kts | 281° |
| 2026-04-15 07:36 | 13.37506 | 100.73221 | 19838 ft | 387 kts | 281° |
| 2026-04-15 07:36 | 13.37993 | 100.70496 | 19838 ft | 387 kts | 281° |
| 2026-04-15 07:37 | 13.38475 | 100.67794 | 19839 ft | 387 kts | 281° |
| 2026-04-15 07:37 | 13.38964 | 100.65060 | 19839 ft | 387 kts | 281° |
| 2026-04-15 07:37 | 13.39447 | 100.62341 | 19838 ft | 387 kts | 281° |
| 2026-04-15 07:37 | 13.39924 | 100.59651 | 19835 ft | 387 kts | 281° |
| 2026-04-15 07:38 | 13.40409 | 100.56916 | 19840 ft | 387 kts | 281° |
| 2026-04-15 07:38 | 13.40888 | 100.54220 | 19728 ft | 388 kts | 281° |
| 2026-04-15 07:38 | 13.41375 | 100.51484 | 19501 ft | 385 kts | 281° |
| 2026-04-15 07:38 | 13.41855 | 100.48775 | 19268 ft | 384 kts | 281° |
| 2026-04-15 07:39 | 13.42332 | 100.46074 | 19037 ft | 382 kts | 281° |
| 2026-04-15 07:39 | 13.42799 | 100.43429 | 18813 ft | 381 kts | 281° |
| 2026-04-15 07:39 | 13.43270 | 100.40767 | 18591 ft | 379 kts | 281° |
| 2026-04-15 07:39 | 13.43803 | 100.38111 | 18356 ft | 377 kts | 288° |
| 2026-04-15 07:40 | 13.44912 | 100.35685 | 18138 ft | 375 kts | 304° |
| 2026-04-15 07:40 | 13.46627 | 100.33670 | 17884 ft | 374 kts | 319° |
| 2026-04-15 07:40 | 13.48742 | 100.32204 | 17633 ft | 372 kts | 334° |
| 2026-04-15 07:40 | 13.51185 | 100.31326 | 17378 ft | 371 kts | 347° |
| 2026-04-15 07:41 | 13.53706 | 100.30752 | 17131 ft | 370 kts | 347° |
| 2026-04-15 07:41 | 13.56214 | 100.30144 | 16752 ft | 369 kts | 346° |
| 2026-04-15 07:41 | 13.58701 | 100.29517 | 16360 ft | 366 kts | 346° |
| 2026-04-15 07:41 | 13.61169 | 100.28888 | 15986 ft | 364 kts | 346° |
| 2026-04-15 07:42 | 13.63624 | 100.28262 | 15626 ft | 362 kts | 346° |
| 2026-04-15 07:42 | 13.66075 | 100.27644 | 15244 ft | 361 kts | 346° |
| 2026-04-15 07:42 | 13.68482 | 100.27043 | 14878 ft | 359 kts | 346° |
| 2026-04-15 07:42 | 13.70918 | 100.26439 | 14508 ft | 357 kts | 347° |
| 2026-04-15 07:43 | 13.73382 | 100.26141 | 14143 ft | 356 kts | 0° |
| 2026-04-15 07:43 | 13.75832 | 100.26453 | 13781 ft | 355 kts | 14° |
| 2026-04-15 07:43 | 13.78114 | 100.27345 | 13395 ft | 353 kts | 27° |
| 2026-04-15 07:43 | 13.80211 | 100.28644 | 13113 ft | 347 kts | 31° |
| 2026-04-15 07:44 | 13.82240 | 100.29924 | 12990 ft | 337 kts | 31° |
| 2026-04-15 07:44 | 13.84214 | 100.31159 | 12848 ft | 327 kts | 31° |
| 2026-04-15 07:44 | 13.86135 | 100.32361 | 12691 ft | 319 kts | 31° |
| 2026-04-15 07:44 | 13.88005 | 100.33528 | 12444 ft | 315 kts | 31° |
| 2026-04-15 07:45 | 13.89879 | 100.34701 | 12125 ft | 314 kts | 31° |
| 2026-04-15 07:45 | 13.91726 | 100.35859 | 11802 ft | 312 kts | 31° |
| 2026-04-15 07:45 | 13.93595 | 100.37032 | 11462 ft | 311 kts | 31° |
| 2026-04-15 07:45 | 13.95419 | 100.38178 | 11146 ft | 309 kts | 31° |
| 2026-04-15 07:46 | 13.97265 | 100.39336 | 10814 ft | 308 kts | 31° |
| 2026-04-15 07:46 | 13.99096 | 100.40482 | 10485 ft | 307 kts | 31° |
| 2026-04-15 07:46 | 14.00901 | 100.41613 | 10168 ft | 305 kts | 31° |
| 2026-04-15 07:46 | 14.02710 | 100.42753 | 9848 ft | 304 kts | 32° |
| 2026-04-15 07:47 | 14.04520 | 100.43895 | 9470 ft | 304 kts | 32° |
| 2026-04-15 07:47 | 14.06316 | 100.45027 | 9138 ft | 301 kts | 31° |
| 2026-04-15 07:47 | 14.08104 | 100.46152 | 8840 ft | 298 kts | 31° |
| 2026-04-15 07:47 | 14.09845 | 100.47247 | 8706 ft | 285 kts | 31° |
| 2026-04-15 07:48 | 14.11472 | 100.48267 | 8516 ft | 271 kts | 31° |
| 2026-04-15 07:48 | 14.13064 | 100.49266 | 8142 ft | 264 kts | 31° |
| 2026-04-15 07:48 | 14.14634 | 100.50252 | 7871 ft | 262 kts | 31° |
| 2026-04-15 07:48 | 14.16187 | 100.51231 | 7602 ft | 261 kts | 31° |
| 2026-04-15 07:49 | 14.17713 | 100.52194 | 7340 ft | 259 kts | 31° |
| 2026-04-15 07:49 | 14.19107 | 100.53349 | 7081 ft | 257 kts | 51° |
| 2026-04-15 07:49 | 14.19967 | 100.54948 | 6817 ft | 254 kts | 74° |
| 2026-04-15 07:49 | 14.20169 | 100.56745 | 6509 ft | 253 kts | 97° |
| 2026-04-15 07:50 | 14.19936 | 100.58548 | 6207 ft | 253 kts | 98° |
| 2026-04-15 07:50 | 14.19699 | 100.60355 | 5890 ft | 254 kts | 99° |
| 2026-04-15 07:50 | 14.19470 | 100.62137 | 5587 ft | 253 kts | 98° |
| 2026-04-15 07:50 | 14.19231 | 100.63933 | 5278 ft | 252 kts | 104° |
| 2026-04-15 07:51 | 14.18545 | 100.65570 | 4974 ft | 249 kts | 129° |
| 2026-04-15 07:51 | 14.17279 | 100.66772 | 4556 ft | 249 kts | 152° |
| 2026-04-15 07:51 | 14.15634 | 100.67395 | 4032 ft | 255 kts | 166° |
| 2026-04-15 07:51 | 14.13926 | 100.67874 | 3517 ft | 258 kts | 166° |
| 2026-04-15 07:52 | 14.12213 | 100.68356 | 3199 ft | 248 kts | 166° |
| 2026-04-15 07:52 | 14.10608 | 100.68809 | 3134 ft | 230 kts | 166° |
| 2026-04-15 07:52 | 14.09110 | 100.69237 | 3071 ft | 219 kts | 166° |
| 2026-04-15 07:52 | 14.07611 | 100.69352 | 2976 ft | 214 kts | 188° |
| 2026-04-15 07:53 | 14.06211 | 100.68868 | 2865 ft | 215 kts | 206° |
| 2026-04-15 07:53 | 14.04888 | 100.68123 | 2609 ft | 216 kts | 208° |
| 2026-04-15 07:53 | 14.03591 | 100.67391 | 2342 ft | 213 kts | 208° |
| 2026-04-15 07:53 | 14.02325 | 100.66679 | 2089 ft | 203 kts | 207° |
| 2026-04-15 07:54 | 14.01108 | 100.65994 | 1860 ft | 193 kts | 208° |
| 2026-04-15 07:54 | 13.99983 | 100.65363 | 1646 ft | 175 kts | 208° |
| 2026-04-15 07:54 | 13.98969 | 100.64795 | 1427 ft | 157 kts | 206° |
| 2026-04-15 07:54 | 13.98048 | 100.64277 | 1213 ft | 147 kts | 208° |
| 2026-04-15 07:55 | 13.97175 | 100.63788 | 1052 ft | 142 kts | 208° |
| 2026-04-15 07:55 | 13.96320 | 100.63307 | 858 ft | 139 kts | 207° |
| 2026-04-15 07:55 | 13.94740 | 100.62418 | 539 ft | 139 kts | 206° |
| 2026-04-15 07:56 | 13.93884 | 100.61947 | 304 ft | 140 kts | 210° |
| 2026-04-15 07:56 | 13.93040 | 100.61463 | 158 ft | 137 kts | 208° |
| 2026-04-15 07:56 | 13.92214 | 100.61005 | 26 ft | 129 kts | 206° |
| 2026-04-15 07:56 | 13.91543 | 100.60631 | 15 ft | 86 kts | 209° |
| 2026-04-15 07:57 | 13.91169 | 100.60418 | 17 ft | 42 kts | 209° |
| 2026-04-15 07:57 | 13.90929 | 100.60284 | 19 ft | 36 kts | 208° |
| 2026-04-15 07:57 | 13.90723 | 100.60159 | 19 ft | 33 kts | 219° |
| 2026-04-15 07:57 | 13.90600 | 100.60016 | 17 ft | 16 kts | 240° |
| 2026-04-15 07:58 | 13.90634 | 100.59933 | 17 ft | 12 kts | 356° |
| 2026-04-15 07:58 | 13.90699 | 100.59966 | 17 ft | 10 kts | 29° |
| 2026-04-15 07:58 | 13.90754 | 100.59997 | 19 ft | 9 kts | 29° |
| 2026-04-15 07:58 | 13.90812 | 100.60030 | 17 ft | 10 kts | 28° |
| 2026-04-15 07:59 | 13.90871 | 100.60063 | 19 ft | 9 kts | 28° |
| 2026-04-15 07:59 | 13.90935 | 100.60098 | 17 ft | 12 kts | 28° |
| 2026-04-15 07:59 | 13.91021 | 100.60145 | 18 ft | 16 kts | 28° |
| 2026-04-15 07:59 | 13.91129 | 100.60207 | 19 ft | 20 kts | 29° |
| 2026-04-15 08:00 | 13.91247 | 100.60273 | 18 ft | 19 kts | 28° |
| 2026-04-15 08:00 | 13.91358 | 100.60332 | 17 ft | 17 kts | 27° |
| 2026-04-15 08:00 | 13.91457 | 100.60390 | 17 ft | 16 kts | 29° |
| 2026-04-15 08:00 | 13.91550 | 100.60443 | 17 ft | 15 kts | 29° |
| 2026-04-15 08:01 | 13.91636 | 100.60491 | 17 ft | 13 kts | 28° |
| 2026-04-15 08:01 | 13.91711 | 100.60532 | 20 ft | 12 kts | 28° |
| 2026-04-15 08:01 | 13.91781 | 100.60570 | 17 ft | 11 kts | 28° |
| 2026-04-15 08:01 | 13.91843 | 100.60585 | 19 ft | 9 kts | 332° |
| 2026-04-15 08:02 | 13.91884 | 100.60524 | 17 ft | 13 kts | 300° |
| 2026-04-15 08:02 | 13.91931 | 100.60439 | 19 ft | 9 kts | 299° |
| 2026-04-15 08:02 | 13.91962 | 100.60426 | 17 ft | 5 kts | 28° |
| 2026-04-15 08:02 | 13.91987 | 100.60441 | 17 ft | 4 kts | 30° |
| 2026-04-15 08:03 | 13.92005 | 100.60451 | 17 ft | 2 kts | 28° |
| 2026-04-15 08:03 | 13.92010 | 100.60454 | 17 ft | 0 kts | 28° |